WetterOnline ( https://www.wetteronline.de )

Wetter aktuell Steinbach am Wald

Aktuelles Wetter: Neuhaus (851m)

6-stündlich | Neueste Meldungen
Ortszeit Temperatur Wetter
Di, 22.10. 2:00 10.2° C wolkig
Mo, 21.10. 20:00 11.1° C bedeckt
Mo, 21.10. 14:00 15.4° C wolkig
Mo, 21.10. 8:00 11.6° C wolkig
Mo, 21.10. 2:00 10.9° C bedeckt
So, 20.10. 20:00 12.2° C bewölkt
So, 20.10. 14:00 15.8° C leicht bewölkt
So, 20.10. 8:00 9.5° C leichter Regen
Ortszeit Temperatur Wetter
Di, 22.10. 7:00 9.4° C leicht bewölkt
Di, 22.10. 6:30 9.8° C wolkenlos
Di, 22.10. 6:20 9.8° C wolkenlos
Di, 22.10. 6:10 9.6° C wolkenlos
Di, 22.10. 6:00 8.3° C leicht bewölkt
Di, 22.10. 5:50 8.3° C leicht bewölkt
Di, 22.10. 5:30 8.9° C leicht bewölkt
Di, 22.10. 5:00 8.8° C leicht bewölkt
Di, 22.10. 4:30 9.1° C fast wolkenlos
Di, 22.10. 4:00 10.0° C leicht bewölkt
Di, 22.10. 3:30 10.2° C wolkig
Ortszeit Relative Feuchte Sichtweite
Di, 22.10. 2:00 94% 12 km
Mo, 21.10. 20:00 93% 30 km
Mo, 21.10. 14:00 66% >70 km
Mo, 21.10. 8:00 80% 65 km
Mo, 21.10. 2:00 87% 45 km
So, 20.10. 20:00 80% 60 km
So, 20.10. 14:00 67% 65 km
So, 20.10. 8:00 95% 45 km
Ortszeit Relative Feuchte Sichtweite
Di, 22.10. 7:00 84% >70 km
Di, 22.10. 6:30 79% >70 km
Di, 22.10. 6:20 79% -
Di, 22.10. 6:10 80% -
Di, 22.10. 6:00 85% 65 km
Di, 22.10. 5:50 85% -
Di, 22.10. 5:30 82% >70 km
Di, 22.10. 5:00 84% >70 km
Di, 22.10. 4:30 84% 60 km
Di, 22.10. 4:00 76% >70 km
Di, 22.10. 3:30 77% >70 km
Ortszeit Niederschlagsmenge Niederschlagsart
Di, 22.10. 2:00 0.0 l/m2 in 6 Std. -
Mo, 21.10. 20:00 0.0 l/m2 in 12 Std. -
Mo, 21.10. 14:00 0.0 l/m2 in 6 Std. -
Mo, 21.10. 8:00 0.0 l/m2 in 12 Std. -
Mo, 21.10. 2:00 0.0 l/m2 in 6 Std. -
So, 20.10. 20:00 0.1 l/m2 in 12 Std. -
So, 20.10. 14:00 0.1 l/m2 in 6 Std. Regen
So, 20.10. 8:00 2 l/m2 in 12 Std. Regen
Ortszeit Niederschlagsmenge Niederschlagsart
Di, 22.10. 7:00 0.0 l/m2 in 1 Std. -
Di, 22.10. 6:30 0.0 l/m2 in 1 Std. -
Di, 22.10. 6:20 keine Meldung -
Di, 22.10. 6:10 keine Meldung -
Di, 22.10. 6:00 0.0 l/m2 in 1 Std. -
Di, 22.10. 5:50 keine Meldung -
Di, 22.10. 5:30 0.0 l/m2 in 1 Std. -
Di, 22.10. 5:00 0.0 l/m2 in 1 Std. -
Di, 22.10. 4:30 0.0 l/m2 in 1 Std. -
Di, 22.10. 4:00 0.0 l/m2 in 1 Std. -
Di, 22.10. 3:30 0.0 l/m2 in 1 Std. -
Ortszeit Stärke Spitze Richtung
km/h Bft. km/h Grad Sektor
Di, 22.10. 2:00 7 2 18 240° SW
Mo, 21.10. 20:00 9 2 24 200° S
Mo, 21.10. 14:00 11 2 29 260° W
Mo, 21.10. 8:00 11 2 18 290° W
Mo, 21.10. 2:00 7 2 29 220° SW
So, 20.10. 20:00 14 3 25 190° S
So, 20.10. 14:00 19 3 30 150° SO
So, 20.10. 8:00 7 2 32 200° S
Ortszeit Stärke Spitze Richtung
km/h Bft. km/h Grad Sektor
Di, 22.10. 7:00 6 1 17 130° SO
Di, 22.10. 6:30 9 2 17 280° W
Di, 22.10. 6:20 9 2 - 280° W
Di, 22.10. 6:10 11 2 - 280° W
Di, 22.10. 6:00 7 2 14 300° NW
Di, 22.10. 5:50 7 2 - 300° NW
Di, 22.10. 5:30 11 2 15 320° NW
Di, 22.10. 5:00 4 1 14 350° N
Di, 22.10. 4:30 4 1 11 350° N
Di, 22.10. 4:00 7 2 22 290° W
Di, 22.10. 3:30 15 3 22 280° W
Ortszeit Untergrenze Bedeckung Gattung
total tief tief mittel hoch
Di, 22.10. 2:00 60 m 7/8 1/8 - - -
Mo, 21.10. 20:00 3300 m 8/8 8/8 - - -
Mo, 21.10. 14:00 2400 m 8/8 2/8 - - -
Mo, 21.10. 8:00 3600 m 8/8 2/8 - - -
Mo, 21.10. 2:00 3300 m 8/8 8/8 - - -
So, 20.10. 20:00 6600 m 8/8 4/8 - - -
So, 20.10. 14:00 6300 m 4/8 4/8 - - -
So, 20.10. 8:00 1800 m 3/8 3/8 - - -
Ortszeit Bedeckungsgrad in Achtel und Wolkenuntergrenze
Di, 22.10. 7:00 3(9000m) 5(10500m)
Di, 22.10. 6:30 keine Wolken
Di, 22.10. 6:20 keine Wolken
Di, 22.10. 6:10 keine Wolken
Di, 22.10. 6:00 1(7200m) 3(9000m)
Di, 22.10. 5:50 1(7200m) 2(9000m) 3(9000m)
Di, 22.10. 5:30 4(6900m) 5(9000m)
Di, 22.10. 5:00 4(7500m) 6(7800m)
Di, 22.10. 4:30 1(10500m)
Di, 22.10. 4:00 3(9000m)
Di, 22.10. 3:30 8(9000m)
Ortszeit Stationsdruck (hPa) Tendenz (hPa in 3 Std.)
Di, 22.10. 2:00 925 + 0,3
Mo, 21.10. 20:00 924 + 1,4
Mo, 21.10. 14:00 922 + 1,3
Mo, 21.10. 8:00 919 + 2,1
Mo, 21.10. 2:00 916 + 1,1
So, 20.10. 20:00 914 + 0,8
So, 20.10. 14:00 914 - 0,3
So, 20.10. 8:00 913 + 0,8
Ortszeit Stationsdruck (hPa) Tendenz (hPa in 3 Std.)
Di, 22.10. 7:00 925 + 0,4
Di, 22.10. 6:30 925 + 0,2
Di, 22.10. 6:20 925 keine Meldung
Di, 22.10. 6:10 925 keine Meldung
Di, 22.10. 6:00 925 0,0
Di, 22.10. 5:50 925 keine Meldung
Di, 22.10. 5:30 925 0,0
Di, 22.10. 5:00 924 - 0,4
Di, 22.10. 4:30 925 - 0,4
Di, 22.10. 4:00 924 - 0,1
Di, 22.10. 3:30 925 + 0,2
Ortszeit Schneehöhe (cm)
Di, 22.10. 2:00 0
Mo, 21.10. 20:00 0
Mo, 21.10. 14:00 0
Mo, 21.10. 8:00 0
Mo, 21.10. 2:00 0
So, 20.10. 20:00 0
So, 20.10. 14:00 0
So, 20.10. 8:00 0
Ortszeit Schneehöhe (cm)
Di, 22.10. 7:00 0
Di, 22.10. 6:30 0
Di, 22.10. 6:20 0
Di, 22.10. 6:10 0
Di, 22.10. 6:00 0
Di, 22.10. 5:50 0
Di, 22.10. 5:30 0
Di, 22.10. 5:00 0
Di, 22.10. 4:30 0
Di, 22.10. 4:00 0
Di, 22.10. 3:30 0
Link zu dieser Seite / Seite empfehlen

Das Wetter in ...